地図

経路データ

SID SEASON NUMBER BASIN SUBBASIN NAME ISO_TIME NATURE LAT LON WMO_WIND WMO_PRES WMO_AGENCY TRACK_TYPE DIST2LAND LANDFALL IFLAG USA_AGENCY USA_ATCF_ID USA_LAT USA_LON USA_RECORD USA_STATUS USA_WIND USA_PRES USA_SSHS USA_R34_NE USA_R34_SE USA_R34_SW USA_R34_NW USA_R50_NE USA_R50_SE USA_R50_SW USA_R50_NW USA_R64_NE USA_R64_SE USA_R64_SW USA_R64_NW USA_POCI USA_ROCI USA_RMW USA_EYE TOKYO_LAT TOKYO_LON TOKYO_GRADE TOKYO_WIND TOKYO_PRES TOKYO_R50_DIR TOKYO_R50_LONG TOKYO_R50_SHORT TOKYO_R30_DIR TOKYO_R30_LONG TOKYO_R30_SHORT TOKYO_LAND CMA_LAT CMA_LON CMA_CAT CMA_WIND CMA_PRES HKO_LAT HKO_LON HKO_CAT HKO_WIND HKO_PRES NEWDELHI_LAT NEWDELHI_LON NEWDELHI_GRADE NEWDELHI_WIND NEWDELHI_PRES NEWDELHI_CI NEWDELHI_DP NEWDELHI_POCI REUNION_LAT REUNION_LON REUNION_TYPE REUNION_WIND REUNION_PRES REUNION_TNUM REUNION_CI REUNION_RMW REUNION_R34_NE REUNION_R34_SE REUNION_R34_SW REUNION_R34_NW REUNION_R50_NE REUNION_R50_SE REUNION_R50_SW REUNION_R50_NW REUNION_R64_NE REUNION_R64_SE REUNION_R64_SW REUNION_R64_NW BOM_LAT BOM_LON BOM_TYPE BOM_WIND BOM_PRES BOM_TNUM BOM_CI BOM_RMW BOM_R34_NE BOM_R34_SE BOM_R34_SW BOM_R34_NW BOM_R50_NE BOM_R50_SE BOM_R50_SW BOM_R50_NW BOM_R64_NE BOM_R64_SE BOM_R64_SW BOM_R64_NW BOM_ROCI BOM_POCI BOM_EYE BOM_POS_METHOD BOM_PRES_METHOD NADI_LAT NADI_LON NADI_CAT NADI_WIND NADI_PRES WELLINGTON_LAT WELLINGTON_LON WELLINGTON_WIND WELLINGTON_PRES DS824_LAT DS824_LON DS824_STAGE DS824_WIND DS824_PRES TD9636_LAT TD9636_LON TD9636_STAGE TD9636_WIND TD9636_PRES TD9635_LAT TD9635_LON TD9635_WIND TD9635_PRES TD9635_ROCI NEUMANN_LAT NEUMANN_LON NEUMANN_CLASS NEUMANN_WIND NEUMANN_PRES MLC_LAT MLC_LON MLC_CLASS MLC_WIND MLC_PRES USA_GUST BOM_GUST BOM_GUST_PER REUNION_GUST REUNION_GUST_PER USA_SEAHGT USA_SEARAD_NE USA_SEARAD_SE USA_SEARAD_SW USA_SEARAD_NW STORM_SPEED STORM_DIR
1968230N17252 1968 66 EP MM HYACINTH 1968-08-17 00:00:00 TS 17.3000 -107.900 25 hurdat_epa main 383 339 O________OO___ hurdat_epa EP081968 17.3000 -107.900 TD 25 -1 17.3000 -107.900 TC 25 17.3000 -107.900 1 13 357
1968230N17252 1968 66 EP MM HYACINTH 1968-08-17 03:00:00 TS 17.9552 -107.944 main 333 305 P________PP___ EP081968 17.9475 -107.942 TD 25 -1 17.9475 -107.942 TC 25 17.9859 -107.948 1 13 356
1968230N17252 1968 66 EP MM HYACINTH 1968-08-17 06:00:00 TS 18.6095 -108.002 25 hurdat_epa main 305 284 O________OP___ hurdat_epa EP081968 18.6000 -108.000 TD 25 -1 18.6000 -108.000 TC 25 18.6475 -108.008 1 13 354
1968230N17252 1968 66 EP MM HYACINTH 1968-08-17 09:00:00 TS 19.2480 -108.086 main 284 266 P________PP___ EP081968 19.2450 -108.085 TD 25 -1 19.2450 -108.085 TC 25 19.2603 -108.088 1 12 351
1968230N17252 1968 66 EP MM HYACINTH 1968-08-17 12:00:00 TS 19.8000 -108.200 25 hurdat_epa main 269 266 O________OO___ hurdat_epa EP081968 19.8000 -108.200 TD 25 -1 19.8000 -108.200 TC 25 19.8000 -108.200 2 10 346
1968230N17252 1968 66 EP MM HYACINTH 1968-08-17 15:00:00 TS 20.1942 -108.344 main 272 272 P________PP___ EP081968 20.1800 -108.343 TD 35 0 20.1800 -108.343 TC 35 20.2510 -108.349 2 8 339
1968230N17252 1968 66 EP MM HYACINTH 1968-08-17 18:00:00 TS 20.5265 -108.503 45 hurdat_epa main 291 250 O________OP___ hurdat_epa EP081968 20.5000 -108.500 TS 45 0 20.5000 -108.500 TC 45 20.6326 -108.515 2 8 337
1968230N17252 1968 66 EP MM HYACINTH 1968-08-17 21:00:00 TS 20.9146 -108.673 main 250 206 P________PP___ EP081968 20.9000 -108.672 TS 45 0 20.9000 -108.672 TC 45 20.9729 -108.673 2 8 340
1968230N17252 1968 66 EP MM HYACINTH 1968-08-18 00:00:00 TS 21.3000 -108.800 45 hurdat_epa main 206 178 O________OO___ hurdat_epa EP081968 21.3000 -108.800 TS 45 0 21.3000 -108.800 TC 45 21.3000 -108.800 2 8 350
1968230N17252 1968 66 EP MM HYACINTH 1968-08-18 03:00:00 TS 21.6550 -108.822 main 169 143 P________PP___ EP081968 21.6575 -108.815 TS 45 0 21.6575 -108.815 TC 45 21.6449 -108.849 2 7 0
1968230N17252 1968 66 EP MM HYACINTH 1968-08-18 06:00:00 TS 21.9970 -108.813 45 hurdat_epa main 143 121 O________OP___ hurdat_epa EP081968 22.0000 -108.800 TS 45 0 22.0000 -108.800 TC 45 21.9849 -108.866 2 7 0
1968230N17252 1968 66 EP MM HYACINTH 1968-08-18 09:00:00 TS 22.3405 -108.843 main 121 83 P________PP___ EP081968 22.3425 -108.835 TS 45 0 22.3425 -108.835 TC 45 22.3324 -108.874 2 7 353
1968230N17252 1968 66 EP MM HYACINTH 1968-08-18 12:00:00 TS 22.7000 -108.900 45 hurdat_epa main 83 52 O________OO___ hurdat_epa EP081968 22.7000 -108.900 TS 45 0 22.7000 -108.900 TC 45 22.7000 -108.900 2 8 350
1968230N17252 1968 66 EP MM HYACINTH 1968-08-18 15:00:00 TS 23.0903 -108.990 main 52 30 P________PP___ EP081968 23.0850 -108.993 TS 45 0 23.0850 -108.993 TC 45 23.1116 -108.982 2 8 347
1968230N17252 1968 66 EP MM HYACINTH 1968-08-18 18:00:00 TS 23.5085 -109.097 45 hurdat_epa main 32 32 O________OP___ hurdat_epa EP081968 23.5000 -109.100 TS 45 0 23.5000 -109.100 TC 45 23.5426 -109.085 2 9 347
1968230N17252 1968 66 EP MM HYACINTH 1968-08-18 21:00:00 TS 23.9615 -109.205 main 54 54 P________PP___ EP081968 23.9575 -109.207 TS 45 0 23.9575 -109.207 TC 45 23.9772 -109.195 2 9 348
1968230N17252 1968 66 EP MM HYACINTH 1968-08-19 00:00:00 TS 24.4000 -109.300 45 hurdat_epa main 67 67 O________OO___ hurdat_epa EP081968 24.4000 -109.300 TS 45 0 24.4000 -109.300 TC 45 24.4000 -109.300 2 8 350
1968230N17252 1968 66 EP MM HYACINTH 1968-08-19 03:00:00 TS 24.7598 -109.357 main 83 53 P________PP___ EP081968 24.7575 -109.350 TS 45 0 24.7575 -109.350 TC 45 24.7690 -109.383 2 7 352
1968230N17252 1968 66 EP MM HYACINTH 1968-08-19 06:00:00 TS 25.1055 -109.412 45 hurdat_epa main 53 24 O________OP___ hurdat_epa EP081968 25.1000 -109.400 TS 45 0 25.1000 -109.400 TC 45 25.1275 -109.458 2 7 350
1968230N17252 1968 66 EP MM HYACINTH 1968-08-19 09:00:00 TS 25.4814 -109.500 main 24 10 P________PP___ EP081968 25.4775 -109.493 TS 45 0 25.4775 -109.493 TC 45 25.4972 -109.529 2 8 348
1968230N17252 1968 66 EP MM HYACINTH 1968-08-19 12:00:00 TS 25.9000 -109.600 45 hurdat_epa main 19 19 O________OO___ hurdat_epa EP081968 25.9000 -109.600 TS 45 0 25.9000 -109.600 TC 45 25.9000 -109.600 6 9 349
1968230N17252 1968 66 EP MM HYACINTH 1968-08-19 15:00:00 TS 26.3800 -109.703 main 33 0 P________PP___ EP081968 26.3850 -109.707 TS 35 0 26.3850 -109.707 TC 35 26.3600 -109.683 6 10 350
1968230N17252 1968 66 EP MM HYACINTH 1968-08-19 18:00:00 TS 26.8910 -109.793 25 hurdat_epa main 0 0 O________OP___ hurdat_epa EP081968 26.9000 -109.800 TD 25 -1 26.9000 -109.800 TC 25 26.8551 -109.765 6 10 352
1968230N17252 1968 66 EP MM HYACINTH 1968-08-19 21:00:00 TS 27.3945 -109.854 main 0 0 P________PP___ EP081968 27.4000 -109.858 TD 25 -1 27.4000 -109.858 TC 25 27.3726 -109.839 6 10 355
1968230N17252 1968 66 EP MM HYACINTH 1968-08-20 00:00:00 TS 27.9000 -109.900 25 hurdat_epa main 0 0 O________OO___ hurdat_epa EP081968 27.9000 -109.900 TD 25 -1 27.9000 -109.900 TC 25 27.9000 -109.900 6 10 355
1968230N17252 1968 66 EP MM HYACINTH 1968-08-20 03:00:00 TS 28.4032 -109.954 main 0 0 P________PP___ EP081968 28.3925 -109.957 TD 25 -1 28.3925 -109.957 TC 25 28.4462 -109.940 6 10 356
1968230N17252 1968 66 EP MM HYACINTH 1968-08-20 06:00:00 TS 28.9190 -109.993 25 hurdat_epa main 0 0 O________OP___ hurdat_epa EP081968 28.9000 -110.000 TD 25 -1 28.9000 -110.000 TC 25 28.9949 -109.965 6 11 358
1968230N17252 1968 66 EP MM HYACINTH 1968-08-20 09:00:00 TS 29.4822 -110.003 main 0 0 P________PP___ EP081968 29.4725 -110.008 TD 25 -1 29.4725 -110.008 TC 25 29.5212 -109.983 6 11 359
1968230N17252 1968 66 EP MM HYACINTH 1968-08-20 12:00:00 TS 30.0000 -110.000 25 hurdat_epa main 0 0 O________OO___ hurdat_epa EP081968 30.0000 -110.000 TD 25 -1 30.0000 -110.000 TC 25 30.0000 -110.000 6 9 2
1968230N17252 1968 66 EP MM HYACINTH 1968-08-20 15:00:00 TS 30.3867 -109.998 main 0 0 P________PP___ EP081968 30.3800 -109.993 TD 25 -1 30.3800 -109.993 TC 25 30.4134 -110.020 6 7 0
1968230N17252 1968 66 EP MM HYACINTH 1968-08-20 18:00:00 TS 30.7114 -110.007 25 hurdat_epa main 0 0 O________OP___ hurdat_epa EP081968 30.7000 -110.000 TD 25 -1 30.7000 -110.000 TC 25 30.7725 -110.045 6 7 356
1968230N17252 1968 66 EP MM HYACINTH 1968-08-20 21:00:00 TS 31.0817 -110.046 main 0 0 P________PP___ EP081968 31.0800 -110.042 TD 25 -1 31.0800 -110.042 TC 25 31.0953 -110.072 6 7 353
1968230N17252 1968 66 EP MM HYACINTH 1968-08-21 00:00:00 TS 31.4000 -110.100 25 hurdat_epa main 0 0 O________OO___ hurdat_epa EP081968 31.4000 -110.100 TD 25 -1 31.4000 -110.100 TC 25 31.4000 -110.100 6 5 350
1968230N17252 1968 66 EP MM HYACINTH 1968-08-21 03:00:00 TS 31.5800 -110.150 main 0 0 P________P____ EP081968 31.5800 -110.150 TD 25 -1 31.5800 -110.150 TC 25 6 3 344
1968230N17252 1968 66 EP MM HYACINTH 1968-08-21 06:00:00 MX 31.7000 -110.200 25 hurdat_epa main 0 0 O________O____ hurdat_epa EP081968 31.7000 -110.200 TD 25 -1 31.7000 -110.200 25 6 3 342
1968230N17252 1968 66 EP MM HYACINTH 1968-08-21 09:00:00 MX 31.8400 -110.250 main 0 0 P________P____ EP081968 31.8400 -110.250 TD 25 -1 31.8400 -110.250 25 6 3 344
1968230N17252 1968 66 EP MM HYACINTH 1968-08-21 12:00:00 MX 32.0000 -110.300 25 hurdat_epa main 0 O________O____ hurdat_epa EP081968 32.0000 -110.300 TD 25 -1 32.0000 -110.300 25 3 349

IBTrACS Databaseについて

本データベースは、米国NOAAが公開する1842年以降の世界の熱帯低気圧のベストトラックデータアーカイブInternational Best Track Archive for Climate Stewardship (IBTrACS)を、ウェブで閲覧しやすい形式に変換したものです。

最終更新日:2021-10-08